sensor_id;sensor_type;location;lat;lon;timestamp;P1;durP1;ratioP1;P2;durP2;ratioP2
3433;SDS011;1730;41.932;25.548;2023-11-21T00:01:57;27.70;;;17.00;;
3433;SDS011;1730;41.932;25.548;2023-11-21T00:04:23;39.53;;;21.23;;
3433;SDS011;1730;41.932;25.548;2023-11-21T00:06:49;25.20;;;13.83;;
3433;SDS011;1730;41.932;25.548;2023-11-21T00:09:14;33.43;;;15.67;;
3433;SDS011;1730;41.932;25.548;2023-11-21T00:11:40;21.90;;;12.93;;
3433;SDS011;1730;41.932;25.548;2023-11-21T00:14:07;24.73;;;12.77;;
3433;SDS011;1730;41.932;25.548;2023-11-21T00:16:33;18.63;;;12.60;;
3433;SDS011;1730;41.932;25.548;2023-11-21T00:18:59;20.90;;;12.60;;
3433;SDS011;1730;41.932;25.548;2023-11-21T00:21:24;23.20;;;11.60;;
3433;SDS011;1730;41.932;25.548;2023-11-21T00:23:52;12.33;;;10.90;;
3433;SDS011;1730;41.932;25.548;2023-11-21T00:26:17;15.83;;;11.37;;
3433;SDS011;1730;41.932;25.548;2023-11-21T00:28:43;19.17;;;12.27;;
3433;SDS011;1730;41.932;25.548;2023-11-21T00:31:08;19.93;;;12.83;;
3433;SDS011;1730;41.932;25.548;2023-11-21T00:33:34;26.57;;;14.50;;
3433;SDS011;1730;41.932;25.548;2023-11-21T00:35:59;17.87;;;12.37;;
3433;SDS011;1730;41.932;25.548;2023-11-21T00:38:26;22.53;;;13.00;;
3433;SDS011;1730;41.932;25.548;2023-11-21T00:40:52;19.80;;;12.67;;
3433;SDS011;1730;41.932;25.548;2023-11-21T00:43:24;16.47;;;11.70;;
3433;SDS011;1730;41.932;25.548;2023-11-21T00:45:50;14.87;;;11.03;;
3433;SDS011;1730;41.932;25.548;2023-11-21T00:48:16;20.10;;;12.40;;
3433;SDS011;1730;41.932;25.548;2023-11-21T00:50:43;16.27;;;11.80;;
3433;SDS011;1730;41.932;25.548;2023-11-21T00:53:09;21.33;;;14.00;;
3433;SDS011;1730;41.932;25.548;2023-11-21T00:55:34;16.87;;;11.27;;
3433;SDS011;1730;41.932;25.548;2023-11-21T00:58:00;20.53;;;11.10;;
3433;SDS011;1730;41.932;25.548;2023-11-21T01:00:28;28.97;;;14.33;;
3433;SDS011;1730;41.932;25.548;2023-11-21T01:02:54;24.13;;;13.63;;
3433;SDS011;1730;41.932;25.548;2023-11-21T01:05:20;17.13;;;10.80;;
3433;SDS011;1730;41.932;25.548;2023-11-21T01:07:45;10.00;;;8.67;;
3433;SDS011;1730;41.932;25.548;2023-11-21T01:10:11;11.20;;;9.40;;
3433;SDS011;1730;41.932;25.548;2023-11-21T01:12:37;11.30;;;8.40;;
3433;SDS011;1730;41.932;25.548;2023-11-21T01:15:04;12.27;;;8.57;;
3433;SDS011;1730;41.932;25.548;2023-11-21T01:17:34;13.00;;;9.27;;
3433;SDS011;1730;41.932;25.548;2023-11-21T01:20:03;14.57;;;8.70;;
3433;SDS011;1730;41.932;25.548;2023-11-21T01:22:36;9.10;;;8.13;;
3433;SDS011;1730;41.932;25.548;2023-11-21T01:25:01;8.97;;;7.70;;
3433;SDS011;1730;41.932;25.548;2023-11-21T01:27:29;9.40;;;7.73;;
3433;SDS011;1730;41.932;25.548;2023-11-21T01:29:55;7.53;;;5.70;;
3433;SDS011;1730;41.932;25.548;2023-11-21T01:32:20;7.70;;;6.23;;
3433;SDS011;1730;41.932;25.548;2023-11-21T01:34:47;7.93;;;6.30;;
3433;SDS011;1730;41.932;25.548;2023-11-21T01:37:14;8.50;;;6.53;;
3433;SDS011;1730;41.932;25.548;2023-11-21T01:39:40;7.63;;;6.50;;
3433;SDS011;1730;41.932;25.548;2023-11-21T01:42:06;7.30;;;6.50;;
3433;SDS011;1730;41.932;25.548;2023-11-21T01:44:32;11.33;;;6.17;;
3433;SDS011;1730;41.932;25.548;2023-11-21T01:46:58;11.07;;;8.13;;
3433;SDS011;1730;41.932;25.548;2023-11-21T01:49:24;17.53;;;8.90;;
3433;SDS011;1730;41.932;25.548;2023-11-21T01:51:49;13.10;;;9.33;;
3433;SDS011;1730;41.932;25.548;2023-11-21T01:54:17;7.30;;;6.43;;
3433;SDS011;1730;41.932;25.548;2023-11-21T01:56:47;8.47;;;5.80;;
3433;SDS011;1730;41.932;25.548;2023-11-21T01:59:17;6.50;;;5.90;;
3433;SDS011;1730;41.932;25.548;2023-11-21T02:01:46;10.17;;;6.10;;
3433;SDS011;1730;41.932;25.548;2023-11-21T02:04:15;6.70;;;6.00;;
3433;SDS011;1730;41.932;25.548;2023-11-21T02:06:41;6.97;;;6.00;;
3433;SDS011;1730;41.932;25.548;2023-11-21T02:09:07;7.93;;;5.50;;
3433;SDS011;1730;41.932;25.548;2023-11-21T02:11:34;7.30;;;5.90;;
3433;SDS011;1730;41.932;25.548;2023-11-21T02:14:00;6.43;;;5.00;;
3433;SDS011;1730;41.932;25.548;2023-11-21T02:16:26;6.83;;;5.80;;
3433;SDS011;1730;41.932;25.548;2023-11-21T02:18:56;8.60;;;6.03;;
3433;SDS011;1730;41.932;25.548;2023-11-21T02:21:24;7.90;;;6.40;;
3433;SDS011;1730;41.932;25.548;2023-11-21T02:23:50;6.90;;;6.10;;
3433;SDS011;1730;41.932;25.548;2023-11-21T02:26:16;7.30;;;5.70;;
3433;SDS011;1730;41.932;25.548;2023-11-21T02:28:42;6.30;;;4.77;;
3433;SDS011;1730;41.932;25.548;2023-11-21T02:31:07;7.10;;;5.53;;
3433;SDS011;1730;41.932;25.548;2023-11-21T02:33:33;6.10;;;4.57;;
3433;SDS011;1730;41.932;25.548;2023-11-21T02:36:02;7.53;;;4.97;;
3433;SDS011;1730;41.932;25.548;2023-11-21T02:38:28;4.70;;;4.30;;
3433;SDS011;1730;41.932;25.548;2023-11-21T02:40:53;7.33;;;5.17;;
3433;SDS011;1730;41.932;25.548;2023-11-21T02:43:19;4.23;;;3.93;;
3433;SDS011;1730;41.932;25.548;2023-11-21T02:45:44;5.03;;;4.60;;
3433;SDS011;1730;41.932;25.548;2023-11-21T02:48:10;5.37;;;4.87;;
3433;SDS011;1730;41.932;25.548;2023-11-21T02:50:36;5.73;;;5.23;;
3433;SDS011;1730;41.932;25.548;2023-11-21T02:53:02;7.27;;;5.53;;
3433;SDS011;1730;41.932;25.548;2023-11-21T02:55:29;6.50;;;5.37;;
3433;SDS011;1730;41.932;25.548;2023-11-21T02:57:55;7.00;;;5.50;;
3433;SDS011;1730;41.932;25.548;2023-11-21T03:00:24;10.10;;;7.10;;
3433;SDS011;1730;41.932;25.548;2023-11-21T03:02:51;10.20;;;7.30;;
3433;SDS011;1730;41.932;25.548;2023-11-21T03:05:16;9.83;;;7.40;;
3433;SDS011;1730;41.932;25.548;2023-11-21T03:07:42;8.60;;;7.00;;
3433;SDS011;1730;41.932;25.548;2023-11-21T03:10:08;10.30;;;6.90;;
3433;SDS011;1730;41.932;25.548;2023-11-21T03:12:36;6.57;;;6.03;;
3433;SDS011;1730;41.932;25.548;2023-11-21T03:15:03;9.00;;;7.13;;
3433;SDS011;1730;41.932;25.548;2023-11-21T03:17:32;8.20;;;6.93;;
3433;SDS011;1730;41.932;25.548;2023-11-21T03:20:02;9.23;;;7.20;;
3433;SDS011;1730;41.932;25.548;2023-11-21T03:22:28;12.33;;;7.53;;
3433;SDS011;1730;41.932;25.548;2023-11-21T03:24:54;8.50;;;7.63;;
3433;SDS011;1730;41.932;25.548;2023-11-21T03:27:22;13.63;;;8.57;;
3433;SDS011;1730;41.932;25.548;2023-11-21T03:29:48;10.30;;;7.73;;
3433;SDS011;1730;41.932;25.548;2023-11-21T03:32:14;16.27;;;9.40;;
3433;SDS011;1730;41.932;25.548;2023-11-21T03:34:56;13.60;;;9.43;;
3433;SDS011;1730;41.932;25.548;2023-11-21T03:37:23;16.83;;;11.30;;
3433;SDS011;1730;41.932;25.548;2023-11-21T03:39:52;20.53;;;12.60;;
3433;SDS011;1730;41.932;25.548;2023-11-21T03:42:18;21.33;;;11.90;;
3433;SDS011;1730;41.932;25.548;2023-11-21T03:44:43;19.33;;;11.67;;
3433;SDS011;1730;41.932;25.548;2023-11-21T03:47:09;20.77;;;12.00;;
3433;SDS011;1730;41.932;25.548;2023-11-21T03:49:35;20.73;;;12.00;;
3433;SDS011;1730;41.932;25.548;2023-11-21T03:52:00;19.97;;;11.87;;
3433;SDS011;1730;41.932;25.548;2023-11-21T03:54:26;18.47;;;11.97;;
3433;SDS011;1730;41.932;25.548;2023-11-21T03:56:51;28.33;;;11.97;;
3433;SDS011;1730;41.932;25.548;2023-11-21T03:59:17;21.90;;;13.40;;
3433;SDS011;1730;41.932;25.548;2023-11-21T04:01:42;23.93;;;13.97;;
3433;SDS011;1730;41.932;25.548;2023-11-21T04:04:08;21.90;;;14.53;;
3433;SDS011;1730;41.932;25.548;2023-11-21T04:06:33;23.50;;;14.10;;
3433;SDS011;1730;41.932;25.548;2023-11-21T04:09:00;24.17;;;13.07;;
3433;SDS011;1730;41.932;25.548;2023-11-21T04:11:26;19.70;;;12.10;;
3433;SDS011;1730;41.932;25.548;2023-11-21T04:13:53;21.47;;;11.63;;
3433;SDS011;1730;41.932;25.548;2023-11-21T04:16:19;16.30;;;10.67;;
3433;SDS011;1730;41.932;25.548;2023-11-21T04:18:44;18.80;;;10.87;;
3433;SDS011;1730;41.932;25.548;2023-11-21T04:21:10;20.00;;;12.23;;
3433;SDS011;1730;41.932;25.548;2023-11-21T04:23:35;19.53;;;12.30;;
3433;SDS011;1730;41.932;25.548;2023-11-21T04:26:01;18.83;;;13.30;;
3433;SDS011;1730;41.932;25.548;2023-11-21T04:28:27;19.90;;;13.80;;
3433;SDS011;1730;41.932;25.548;2023-11-21T04:30:53;23.50;;;14.23;;
3433;SDS011;1730;41.932;25.548;2023-11-21T04:33:19;18.07;;;12.27;;
3433;SDS011;1730;41.932;25.548;2023-11-21T04:35:44;22.03;;;13.17;;
3433;SDS011;1730;41.932;25.548;2023-11-21T04:38:10;25.03;;;11.50;;
3433;SDS011;1730;41.932;25.548;2023-11-21T04:40:36;34.27;;;12.17;;
3433;SDS011;1730;41.932;25.548;2023-11-21T04:43:02;17.50;;;11.60;;
3433;SDS011;1730;41.932;25.548;2023-11-21T04:45:29;17.87;;;11.17;;
3433;SDS011;1730;41.932;25.548;2023-11-21T04:47:54;19.53;;;11.00;;
3433;SDS011;1730;41.932;25.548;2023-11-21T04:50:20;22.10;;;11.63;;
3433;SDS011;1730;41.932;25.548;2023-11-21T04:52:46;20.33;;;10.70;;
3433;SDS011;1730;41.932;25.548;2023-11-21T04:55:12;57.90;;;20.73;;
3433;SDS011;1730;41.932;25.548;2023-11-21T04:57:38;22.43;;;11.03;;
3433;SDS011;1730;41.932;25.548;2023-11-21T05:00:12;17.97;;;10.13;;
3433;SDS011;1730;41.932;25.548;2023-11-21T05:02:39;14.30;;;9.97;;
3433;SDS011;1730;41.932;25.548;2023-11-21T05:05:06;17.93;;;12.40;;
3433;SDS011;1730;41.932;25.548;2023-11-21T05:07:33;24.50;;;17.90;;
3433;SDS011;1730;41.932;25.548;2023-11-21T05:10:00;20.17;;;16.00;;
3433;SDS011;1730;41.932;25.548;2023-11-21T05:12:31;23.20;;;16.57;;
3433;SDS011;1730;41.932;25.548;2023-11-21T05:15:03;20.80;;;15.60;;
3433;SDS011;1730;41.932;25.548;2023-11-21T05:17:33;22.13;;;14.90;;
3433;SDS011;1730;41.932;25.548;2023-11-21T05:19:59;16.47;;;12.47;;
3433;SDS011;1730;41.932;25.548;2023-11-21T05:22:29;23.00;;;13.37;;
3433;SDS011;1730;41.932;25.548;2023-11-21T05:24:55;25.30;;;14.20;;
3433;SDS011;1730;41.932;25.548;2023-11-21T05:27:21;31.33;;;17.10;;
3433;SDS011;1730;41.932;25.548;2023-11-21T05:29:47;27.50;;;15.47;;
3433;SDS011;1730;41.932;25.548;2023-11-21T05:32:12;27.73;;;15.47;;
3433;SDS011;1730;41.932;25.548;2023-11-21T05:34:38;27.43;;;17.07;;
3433;SDS011;1730;41.932;25.548;2023-11-21T05:37:03;28.67;;;16.10;;
3433;SDS011;1730;41.932;25.548;2023-11-21T05:39:30;21.27;;;15.30;;
3433;SDS011;1730;41.932;25.548;2023-11-21T05:41:57;20.17;;;15.27;;
3433;SDS011;1730;41.932;25.548;2023-11-21T05:44:23;24.67;;;16.60;;
3433;SDS011;1730;41.932;25.548;2023-11-21T05:46:48;21.47;;;15.63;;
3433;SDS011;1730;41.932;25.548;2023-11-21T05:49:15;22.17;;;15.90;;
3433;SDS011;1730;41.932;25.548;2023-11-21T05:51:41;33.30;;;18.20;;
3433;SDS011;1730;41.932;25.548;2023-11-21T05:54:07;28.90;;;18.30;;
3433;SDS011;1730;41.932;25.548;2023-11-21T05:56:33;32.03;;;18.17;;
3433;SDS011;1730;41.932;25.548;2023-11-21T05:58:59;26.43;;;18.03;;
3433;SDS011;1730;41.932;25.548;2023-11-21T06:01:25;28.77;;;19.50;;
3433;SDS011;1730;41.932;25.548;2023-11-21T06:03:53;39.23;;;24.97;;
3433;SDS011;1730;41.932;25.548;2023-11-21T06:06:20;52.93;;;26.90;;
3433;SDS011;1730;41.932;25.548;2023-11-21T06:08:48;50.97;;;27.60;;
3433;SDS011;1730;41.932;25.548;2023-11-21T06:11:14;60.37;;;34.43;;
3433;SDS011;1730;41.932;25.548;2023-11-21T06:13:41;61.50;;;35.00;;
3433;SDS011;1730;41.932;25.548;2023-11-21T06:16:07;49.30;;;30.83;;
3433;SDS011;1730;41.932;25.548;2023-11-21T06:18:33;39.07;;;27.70;;
3433;SDS011;1730;41.932;25.548;2023-11-21T06:21:00;38.30;;;24.00;;
3433;SDS011;1730;41.932;25.548;2023-11-21T06:23:26;36.47;;;21.70;;
3433;SDS011;1730;41.932;25.548;2023-11-21T06:25:51;63.90;;;29.90;;
3433;SDS011;1730;41.932;25.548;2023-11-21T06:28:18;45.77;;;26.40;;
3433;SDS011;1730;41.932;25.548;2023-11-21T06:30:43;55.37;;;27.60;;
3433;SDS011;1730;41.932;25.548;2023-11-21T06:33:12;40.87;;;23.93;;
3433;SDS011;1730;41.932;25.548;2023-11-21T06:35:37;30.10;;;19.13;;
3433;SDS011;1730;41.932;25.548;2023-11-21T06:38:03;35.43;;;17.83;;
3433;SDS011;1730;41.932;25.548;2023-11-21T06:40:29;28.73;;;18.70;;
3433;SDS011;1730;41.932;25.548;2023-11-21T06:42:54;31.93;;;18.10;;
3433;SDS011;1730;41.932;25.548;2023-11-21T06:45:20;31.97;;;20.60;;
3433;SDS011;1730;41.932;25.548;2023-11-21T06:47:46;38.80;;;23.77;;
3433;SDS011;1730;41.932;25.548;2023-11-21T06:50:12;44.90;;;28.33;;
3433;SDS011;1730;41.932;25.548;2023-11-21T06:52:41;44.97;;;28.67;;
3433;SDS011;1730;41.932;25.548;2023-11-21T06:55:08;49.20;;;31.40;;
3433;SDS011;1730;41.932;25.548;2023-11-21T06:57:35;42.83;;;28.30;;
3433;SDS011;1730;41.932;25.548;2023-11-21T07:00:00;47.60;;;28.27;;
3433;SDS011;1730;41.932;25.548;2023-11-21T07:02:26;44.00;;;27.60;;
3433;SDS011;1730;41.932;25.548;2023-11-21T07:04:53;54.87;;;29.40;;
3433;SDS011;1730;41.932;25.548;2023-11-21T07:07:18;39.03;;;28.40;;
3433;SDS011;1730;41.932;25.548;2023-11-21T07:09:44;41.43;;;23.13;;
3433;SDS011;1730;41.932;25.548;2023-11-21T07:12:10;33.80;;;21.20;;
3433;SDS011;1730;41.932;25.548;2023-11-21T07:14:36;39.70;;;22.40;;
3433;SDS011;1730;41.932;25.548;2023-11-21T07:17:04;38.90;;;22.40;;
3433;SDS011;1730;41.932;25.548;2023-11-21T07:19:30;43.37;;;24.03;;
3433;SDS011;1730;41.932;25.548;2023-11-21T07:21:56;44.67;;;22.00;;
3433;SDS011;1730;41.932;25.548;2023-11-21T07:24:21;36.50;;;18.77;;
3433;SDS011;1730;41.932;25.548;2023-11-21T07:26:50;41.83;;;20.37;;
3433;SDS011;1730;41.932;25.548;2023-11-21T07:29:15;33.00;;;17.30;;
3433;SDS011;1730;41.932;25.548;2023-11-21T07:31:41;31.13;;;17.03;;
3433;SDS011;1730;41.932;25.548;2023-11-21T07:34:07;32.93;;;10.67;;
3433;SDS011;1730;41.932;25.548;2023-11-21T07:36:33;21.57;;;9.90;;
3433;SDS011;1730;41.932;25.548;2023-11-21T07:38:59;20.10;;;11.10;;
3433;SDS011;1730;41.932;25.548;2023-11-21T07:41:25;13.60;;;8.87;;
3433;SDS011;1730;41.932;25.548;2023-11-21T07:43:50;16.40;;;6.63;;
3433;SDS011;1730;41.932;25.548;2023-11-21T07:46:16;7.43;;;6.43;;
3433;SDS011;1730;41.932;25.548;2023-11-21T07:48:42;5.80;;;5.40;;
3433;SDS011;1730;41.932;25.548;2023-11-21T07:51:09;7.80;;;5.33;;
3433;SDS011;1730;41.932;25.548;2023-11-21T07:53:35;7.47;;;5.70;;
3433;SDS011;1730;41.932;25.548;2023-11-21T07:56:08;6.00;;;5.40;;
3433;SDS011;1730;41.932;25.548;2023-11-21T07:58:37;10.07;;;6.87;;
3433;SDS011;1730;41.932;25.548;2023-11-21T08:01:03;6.30;;;5.70;;
3433;SDS011;1730;41.932;25.548;2023-11-21T08:03:30;12.57;;;7.20;;
3433;SDS011;1730;41.932;25.548;2023-11-21T08:06:08;21.43;;;7.60;;
3433;SDS011;1730;41.932;25.548;2023-11-21T08:08:51;18.43;;;8.27;;
3433;SDS011;1730;41.932;25.548;2023-11-21T08:11:17;10.70;;;6.57;;
3433;SDS011;1730;41.932;25.548;2023-11-21T08:13:42;10.10;;;7.10;;
3433;SDS011;1730;41.932;25.548;2023-11-21T08:16:08;14.43;;;6.97;;
3433;SDS011;1730;41.932;25.548;2023-11-21T08:19:33;5.90;;;5.40;;
3433;SDS011;1730;41.932;25.548;2023-11-21T08:22:57;7.60;;;5.80;;
3433;SDS011;1730;41.932;25.548;2023-11-21T08:25:56;11.30;;;5.70;;
3433;SDS011;1730;41.932;25.548;2023-11-21T08:28:43;5.50;;;5.00;;
3433;SDS011;1730;41.932;25.548;2023-11-21T08:31:09;8.20;;;6.90;;
3433;SDS011;1730;41.932;25.548;2023-11-21T08:33:34;10.50;;;6.80;;
3433;SDS011;1730;41.932;25.548;2023-11-21T08:36:00;7.70;;;5.80;;
3433;SDS011;1730;41.932;25.548;2023-11-21T08:38:26;8.83;;;6.27;;
3433;SDS011;1730;41.932;25.548;2023-11-21T08:40:53;10.40;;;6.67;;
3433;SDS011;1730;41.932;25.548;2023-11-21T08:43:19;16.60;;;6.77;;
3433;SDS011;1730;41.932;25.548;2023-11-21T08:45:45;7.43;;;6.60;;
3433;SDS011;1730;41.932;25.548;2023-11-21T08:48:12;7.40;;;6.63;;
3433;SDS011;1730;41.932;25.548;2023-11-21T08:50:37;17.13;;;6.33;;
3433;SDS011;1730;41.932;25.548;2023-11-21T08:53:03;17.23;;;7.53;;
3433;SDS011;1730;41.932;25.548;2023-11-21T08:55:28;10.40;;;6.80;;
3433;SDS011;1730;41.932;25.548;2023-11-21T08:57:54;5.83;;;5.33;;
3433;SDS011;1730;41.932;25.548;2023-11-21T09:00:20;9.30;;;6.53;;
3433;SDS011;1730;41.932;25.548;2023-11-21T09:02:47;7.53;;;5.70;;
3433;SDS011;1730;41.932;25.548;2023-11-21T09:05:13;8.60;;;6.60;;
3433;SDS011;1730;41.932;25.548;2023-11-21T09:07:40;4.40;;;4.00;;
3433;SDS011;1730;41.932;25.548;2023-11-21T09:13:13;3.90;;;3.60;;
3433;SDS011;1730;41.932;25.548;2023-11-21T09:15:38;3.97;;;3.67;;
3433;SDS011;1730;41.932;25.548;2023-11-21T09:18:05;3.50;;;3.17;;
3433;SDS011;1730;41.932;25.548;2023-11-21T09:20:31;5.43;;;3.60;;
3433;SDS011;1730;41.932;25.548;2023-11-21T09:23:03;3.83;;;3.53;;
3433;SDS011;1730;41.932;25.548;2023-11-21T09:25:30;3.80;;;3.43;;
3433;SDS011;1730;41.932;25.548;2023-11-21T09:27:55;5.07;;;4.67;;
3433;SDS011;1730;41.932;25.548;2023-11-21T09:30:22;4.67;;;4.37;;
3433;SDS011;1730;41.932;25.548;2023-11-21T09:32:50;4.60;;;4.23;;
3433;SDS011;1730;41.932;25.548;2023-11-21T09:35:16;4.30;;;3.90;;
3433;SDS011;1730;41.932;25.548;2023-11-21T09:37:45;5.23;;;4.60;;
3433;SDS011;1730;41.932;25.548;2023-11-21T09:40:11;5.53;;;3.90;;
3433;SDS011;1730;41.932;25.548;2023-11-21T09:42:55;5.00;;;4.60;;
3433;SDS011;1730;41.932;25.548;2023-11-21T09:45:26;4.80;;;4.40;;
3433;SDS011;1730;41.932;25.548;2023-11-21T09:47:54;6.17;;;4.00;;
3433;SDS011;1730;41.932;25.548;2023-11-21T09:50:23;3.90;;;3.60;;
3433;SDS011;1730;41.932;25.548;2023-11-21T09:55:52;3.97;;;3.63;;
3433;SDS011;1730;41.932;25.548;2023-11-21T09:58:19;4.80;;;4.30;;
3433;SDS011;1730;41.932;25.548;2023-11-21T10:00:47;3.37;;;3.17;;
3433;SDS011;1730;41.932;25.548;2023-11-21T10:03:17;3.83;;;2.80;;
3433;SDS011;1730;41.932;25.548;2023-11-21T10:05:43;3.83;;;3.53;;
3433;SDS011;1730;41.932;25.548;2023-11-21T10:08:13;3.07;;;2.87;;
3433;SDS011;1730;41.932;25.548;2023-11-21T10:10:43;7.70;;;4.00;;
3433;SDS011;1730;41.932;25.548;2023-11-21T10:13:14;4.90;;;2.73;;
3433;SDS011;1730;41.932;25.548;2023-11-21T10:15:42;5.13;;;2.43;;
3433;SDS011;1730;41.932;25.548;2023-11-21T10:18:13;2.50;;;2.30;;
3433;SDS011;1730;41.932;25.548;2023-11-21T10:20:40;2.37;;;2.03;;
3433;SDS011;1730;41.932;25.548;2023-11-21T10:23:07;2.10;;;1.90;;
3433;SDS011;1730;41.932;25.548;2023-11-21T10:25:36;3.00;;;1.93;;
3433;SDS011;1730;41.932;25.548;2023-11-21T10:28:02;3.20;;;2.43;;
3433;SDS011;1730;41.932;25.548;2023-11-21T10:30:35;2.70;;;1.87;;
3433;SDS011;1730;41.932;25.548;2023-11-21T10:33:03;1.90;;;1.80;;
3433;SDS011;1730;41.932;25.548;2023-11-21T10:35:48;2.87;;;2.67;;
3433;SDS011;1730;41.932;25.548;2023-11-21T10:38:20;2.67;;;2.47;;
3433;SDS011;1730;41.932;25.548;2023-11-21T10:40:51;2.10;;;2.00;;
3433;SDS011;1730;41.932;25.548;2023-11-21T10:43:17;2.90;;;2.70;;
3433;SDS011;1730;41.932;25.548;2023-11-21T10:45:44;2.63;;;2.43;;
3433;SDS011;1730;41.932;25.548;2023-11-21T10:48:12;2.73;;;2.23;;
3433;SDS011;1730;41.932;25.548;2023-11-21T10:50:45;2.77;;;2.13;;
3433;SDS011;1730;41.932;25.548;2023-11-21T10:53:12;3.63;;;2.07;;
3433;SDS011;1730;41.932;25.548;2023-11-21T10:55:38;7.20;;;2.30;;
3433;SDS011;1730;41.932;25.548;2023-11-21T10:58:04;2.47;;;2.00;;
3433;SDS011;1730;41.932;25.548;2023-11-21T11:00:31;2.10;;;1.90;;
3433;SDS011;1730;41.932;25.548;2023-11-21T11:02:58;3.60;;;1.93;;
3433;SDS011;1730;41.932;25.548;2023-11-21T11:05:50;3.63;;;2.03;;
3433;SDS011;1730;41.932;25.548;2023-11-21T11:08:21;3.13;;;2.10;;
3433;SDS011;1730;41.932;25.548;2023-11-21T11:10:52;3.23;;;3.03;;
3433;SDS011;1730;41.932;25.548;2023-11-21T11:13:21;2.90;;;2.40;;
3433;SDS011;1730;41.932;25.548;2023-11-21T11:16:00;6.10;;;4.50;;
3433;SDS011;1730;41.932;25.548;2023-11-21T12:01:44;14.60;;;7.80;;
3433;SDS011;1730;41.932;25.548;2023-11-21T12:06:46;17.13;;;10.33;;
3433;SDS011;1730;41.932;25.548;2023-11-21T12:09:19;18.33;;;8.93;;
3433;SDS011;1730;41.932;25.548;2023-11-21T12:11:50;13.23;;;7.47;;
3433;SDS011;1730;41.932;25.548;2023-11-21T12:14:21;10.37;;;7.83;;
3433;SDS011;1730;41.932;25.548;2023-11-21T12:16:47;6.87;;;6.20;;
3433;SDS011;1730;41.932;25.548;2023-11-21T12:19:17;7.20;;;6.50;;
3433;SDS011;1730;41.932;25.548;2023-11-21T12:21:42;7.57;;;6.00;;
3433;SDS011;1730;41.932;25.548;2023-11-21T12:24:10;7.13;;;6.40;;
3433;SDS011;1730;41.932;25.548;2023-11-21T12:26:39;6.10;;;4.67;;
3433;SDS011;1730;41.932;25.548;2023-11-21T12:29:07;9.93;;;6.80;;
3433;SDS011;1730;41.932;25.548;2023-11-21T12:31:34;8.10;;;6.17;;
3433;SDS011;1730;41.932;25.548;2023-11-21T12:34:00;11.73;;;5.60;;
3433;SDS011;1730;41.932;25.548;2023-11-21T12:36:26;4.77;;;4.20;;
3433;SDS011;1730;41.932;25.548;2023-11-21T12:38:54;3.00;;;2.80;;
3433;SDS011;1730;41.932;25.548;2023-11-21T12:41:20;4.67;;;2.73;;
3433;SDS011;1730;41.932;25.548;2023-11-21T12:43:46;2.80;;;2.60;;
3433;SDS011;1730;41.932;25.548;2023-11-21T12:46:15;5.93;;;2.20;;
3433;SDS011;1730;41.932;25.548;2023-11-21T12:48:45;2.73;;;2.53;;
3433;SDS011;1730;41.932;25.548;2023-11-21T12:51:15;3.30;;;2.63;;
3433;SDS011;1730;41.932;25.548;2023-11-21T12:53:41;2.57;;;2.37;;
3433;SDS011;1730;41.932;25.548;2023-11-21T12:58:37;3.77;;;2.77;;
3433;SDS011;1730;41.932;25.548;2023-11-21T13:01:07;4.17;;;3.20;;
3433;SDS011;1730;41.932;25.548;2023-11-21T13:03:47;8.33;;;3.10;;
3433;SDS011;1730;41.932;25.548;2023-11-21T13:06:16;3.23;;;3.03;;
3433;SDS011;1730;41.932;25.548;2023-11-21T13:08:44;2.93;;;2.70;;
3433;SDS011;1730;41.932;25.548;2023-11-21T13:11:10;3.10;;;2.90;;
3433;SDS011;1730;41.932;25.548;2023-11-21T13:13:45;4.37;;;2.97;;
3433;SDS011;1730;41.932;25.548;2023-11-21T13:16:10;13.30;;;9.80;;
3433;SDS011;1730;41.932;25.548;2023-11-21T13:18:43;3.67;;;3.33;;
3433;SDS011;1730;41.932;25.548;2023-11-21T13:21:09;4.33;;;3.60;;
3433;SDS011;1730;41.932;25.548;2023-11-21T13:23:40;4.53;;;4.13;;
3433;SDS011;1730;41.932;25.548;2023-11-21T13:26:12;4.53;;;4.13;;
3433;SDS011;1730;41.932;25.548;2023-11-21T13:29:12;5.80;;;5.30;;
3433;SDS011;1730;41.932;25.548;2023-11-21T13:31:38;9.10;;;4.67;;
3433;SDS011;1730;41.932;25.548;2023-11-21T13:34:04;4.83;;;4.43;;
3433;SDS011;1730;41.932;25.548;2023-11-21T13:36:30;5.90;;;4.73;;
3433;SDS011;1730;41.932;25.548;2023-11-21T13:38:58;5.83;;;5.23;;
3433;SDS011;1730;41.932;25.548;2023-11-21T13:41:24;5.50;;;5.00;;
3433;SDS011;1730;41.932;25.548;2023-11-21T13:43:56;5.50;;;5.10;;
3433;SDS011;1730;41.932;25.548;2023-11-21T13:46:31;6.10;;;5.60;;
3433;SDS011;1730;41.932;25.548;2023-11-21T13:49:05;5.57;;;5.07;;
3433;SDS011;1730;41.932;25.548;2023-11-21T13:51:38;8.90;;;5.80;;
3433;SDS011;1730;41.932;25.548;2023-11-21T13:54:09;6.17;;;5.57;;
3433;SDS011;1730;41.932;25.548;2023-11-21T13:56:36;6.60;;;5.90;;
3433;SDS011;1730;41.932;25.548;2023-11-21T13:59:02;6.00;;;5.60;;
3433;SDS011;1730;41.932;25.548;2023-11-21T14:01:51;9.13;;;6.37;;
3433;SDS011;1730;41.932;25.548;2023-11-21T14:04:21;6.57;;;6.07;;
3433;SDS011;1730;41.932;25.548;2023-11-21T14:06:55;7.10;;;6.27;;
3433;SDS011;1730;41.932;25.548;2023-11-21T14:09:22;7.03;;;5.53;;
3433;SDS011;1730;41.932;25.548;2023-11-21T14:12:01;6.83;;;6.33;;
3433;SDS011;1730;41.932;25.548;2023-11-21T14:14:31;6.53;;;6.03;;
3433;SDS011;1730;41.932;25.548;2023-11-21T14:16:57;9.30;;;5.73;;
3433;SDS011;1730;41.932;25.548;2023-11-21T14:19:25;6.37;;;5.87;;
3433;SDS011;1730;41.932;25.548;2023-11-21T14:21:56;7.03;;;6.43;;
3433;SDS011;1730;41.932;25.548;2023-11-21T14:24:24;6.77;;;6.30;;
3433;SDS011;1730;41.932;25.548;2023-11-21T14:26:51;7.13;;;6.03;;
3433;SDS011;1730;41.932;25.548;2023-11-21T14:29:18;5.47;;;4.97;;
3433;SDS011;1730;41.932;25.548;2023-11-21T14:31:49;8.30;;;5.30;;
3433;SDS011;1730;41.932;25.548;2023-11-21T14:34:22;7.40;;;6.03;;
3433;SDS011;1730;41.932;25.548;2023-11-21T14:36:48;7.23;;;6.00;;
3433;SDS011;1730;41.932;25.548;2023-11-21T14:39:14;6.57;;;5.90;;
3433;SDS011;1730;41.932;25.548;2023-11-21T14:41:51;8.73;;;7.80;;
3433;SDS011;1730;41.932;25.548;2023-11-21T14:44:21;8.43;;;6.70;;
3433;SDS011;1730;41.932;25.548;2023-11-21T14:46:58;8.00;;;6.13;;
3433;SDS011;1730;41.932;25.548;2023-11-21T14:49:45;7.70;;;6.50;;
3433;SDS011;1730;41.932;25.548;2023-11-21T14:52:40;7.97;;;7.27;;
3433;SDS011;1730;41.932;25.548;2023-11-21T14:55:20;21.43;;;7.80;;
3433;SDS011;1730;41.932;25.548;2023-11-21T14:57:51;10.90;;;9.10;;
3433;SDS011;1730;41.932;25.548;2023-11-21T15:00:17;13.70;;;9.30;;
3433;SDS011;1730;41.932;25.548;2023-11-21T15:03:03;18.30;;;9.20;;
3433;SDS011;1730;41.932;25.548;2023-11-21T15:05:29;24.50;;;18.20;;
3433;SDS011;1730;41.932;25.548;2023-11-21T15:07:55;10.77;;;8.93;;
3433;SDS011;1730;41.932;25.548;2023-11-21T15:10:38;20.47;;;15.37;;
3433;SDS011;1730;41.932;25.548;2023-11-21T15:13:18;18.67;;;12.90;;
3433;SDS011;1730;41.932;25.548;2023-11-21T15:16:03;21.37;;;15.50;;
3433;SDS011;1730;41.932;25.548;2023-11-21T15:18:33;15.10;;;11.90;;
3433;SDS011;1730;41.932;25.548;2023-11-21T15:23:36;12.50;;;9.90;;
3433;SDS011;1730;41.932;25.548;2023-11-21T15:26:02;17.83;;;13.03;;
3433;SDS011;1730;41.932;25.548;2023-11-21T15:28:30;13.80;;;10.80;;
3433;SDS011;1730;41.932;25.548;2023-11-21T15:30:59;16.03;;;12.00;;
3433;SDS011;1730;41.932;25.548;2023-11-21T15:33:27;21.03;;;13.33;;
3433;SDS011;1730;41.932;25.548;2023-11-21T15:35:53;13.70;;;9.63;;
3433;SDS011;1730;41.932;25.548;2023-11-21T15:38:43;18.23;;;9.77;;
3433;SDS011;1730;41.932;25.548;2023-11-21T15:41:09;9.97;;;8.80;;
3433;SDS011;1730;41.932;25.548;2023-11-21T15:43:36;9.97;;;8.03;;
3433;SDS011;1730;41.932;25.548;2023-11-21T15:46:03;8.20;;;5.70;;
3433;SDS011;1730;41.932;25.548;2023-11-21T15:48:35;5.40;;;4.90;;
3433;SDS011;1730;41.932;25.548;2023-11-21T15:51:14;8.10;;;5.70;;
3433;SDS011;1730;41.932;25.548;2023-11-21T15:53:41;4.40;;;4.10;;
3433;SDS011;1730;41.932;25.548;2023-11-21T15:56:07;4.40;;;4.00;;